createdAt,value
2023-01-20T00:02:11.202Z,27.40
2023-01-20T00:04:38.846Z,27.37
2023-01-20T00:07:06.472Z,28.07
2023-01-20T00:09:35.422Z,27.37
2023-01-20T00:12:03.028Z,27.33
2023-01-20T00:14:30.642Z,26.20
2023-01-20T00:16:59.973Z,27.43
2023-01-20T00:19:28.215Z,25.80
2023-01-20T00:21:55.967Z,26.70
2023-01-20T00:24:23.591Z,26.77
2023-01-20T00:26:52.588Z,28.77
2023-01-20T00:29:20.391Z,26.00
2023-01-20T00:31:48.056Z,26.43
2023-01-20T00:34:15.731Z,25.93
2023-01-20T00:36:43.381Z,27.97
2023-01-20T00:39:11.007Z,28.37
2023-01-20T00:41:38.656Z,27.50
2023-01-20T00:44:07.807Z,26.87
2023-01-20T00:46:35.423Z,26.37
2023-01-20T00:49:03.091Z,27.40
2023-01-20T00:51:30.806Z,27.37
2023-01-20T00:53:58.426Z,26.73
2023-01-20T00:56:26.384Z,27.27
2023-01-20T00:58:55.154Z,26.90
2023-01-20T01:01:24.920Z,27.33
2023-01-20T01:03:54.124Z,26.37
2023-01-20T01:06:23.332Z,26.67
2023-01-20T01:08:51.020Z,26.87
2023-01-20T01:11:18.615Z,26.37
2023-01-20T01:13:46.199Z,27.23
2023-01-20T01:16:15.117Z,27.63
2023-01-20T01:18:44.734Z,27.07
2023-01-20T01:21:15.699Z,26.37
2023-01-20T01:23:43.810Z,26.10
2023-01-20T01:26:11.695Z,26.27
2023-01-20T01:28:39.756Z,26.73
2023-01-20T01:31:09.094Z,26.90
2023-01-20T01:33:37.101Z,26.40
2023-01-20T01:36:08.409Z,26.80
2023-01-20T01:38:36.069Z,27.20
2023-01-20T01:41:03.817Z,26.90
2023-01-20T01:43:33.291Z,27.80
2023-01-20T01:46:01.707Z,26.67
2023-01-20T01:48:34.032Z,27.27
2023-01-20T01:51:05.864Z,26.90
2023-01-20T01:53:40.878Z,26.27
2023-01-20T01:56:09.827Z,25.80
2023-01-20T01:58:41.834Z,25.33
2023-01-20T02:01:09.466Z,26.70
2023-01-20T02:03:48.626Z,25.90
2023-01-20T02:06:17.107Z,25.20
2023-01-20T02:08:46.796Z,25.77
2023-01-20T02:11:14.459Z,26.30
2023-01-20T02:13:42.079Z,25.80
2023-01-20T02:16:19.012Z,26.47
2023-01-20T02:18:59.438Z,26.47
2023-01-20T02:22:09.711Z,26.90
2023-01-20T02:25:22.618Z,26.10
2023-01-20T02:28:24.188Z,25.90
2023-01-20T02:31:27.240Z,25.67
2023-01-20T02:34:01.829Z,25.50
2023-01-20T02:36:35.067Z,26.20
2023-01-20T02:39:07.154Z,25.73
2023-01-20T02:41:43.161Z,26.30
2023-01-20T02:44:18.993Z,25.20
2023-01-20T02:46:53.483Z,25.13
2023-01-20T02:49:28.379Z,25.30
2023-01-20T02:52:02.777Z,25.60
2023-01-20T02:54:34.820Z,26.17
2023-01-20T02:57:04.927Z,25.70
2023-01-20T02:59:37.619Z,26.43
2023-01-20T03:02:09.959Z,26.47
2023-01-20T03:04:43.320Z,26.30
2023-01-20T03:07:14.819Z,27.60
2023-01-20T03:09:48.099Z,26.60
2023-01-20T03:12:22.316Z,26.30
2023-01-20T03:14:51.873Z,25.93
2023-01-20T03:17:19.711Z,26.00
2023-01-20T03:19:48.878Z,25.90
2023-01-20T03:22:16.970Z,26.30
2023-01-20T03:24:48.031Z,26.57
2023-01-20T03:27:15.767Z,26.83
2023-01-20T03:29:43.347Z,26.83
2023-01-20T03:32:12.772Z,25.87
2023-01-20T03:34:43.654Z,26.30
2023-01-20T03:37:14.178Z,25.50
2023-01-20T03:39:41.996Z,26.37
2023-01-20T03:42:13.771Z,27.07
2023-01-20T03:44:55.636Z,26.43
2023-01-20T03:47:37.195Z,25.47
2023-01-20T03:50:10.354Z,26.30
2023-01-20T03:52:47.483Z,25.93
2023-01-20T03:55:21.607Z,26.97
2023-01-20T03:57:54.159Z,26.43
2023-01-20T04:00:25.214Z,26.57
2023-01-20T04:02:55.615Z,26.13
2023-01-20T04:05:23.415Z,26.27
2023-01-20T04:07:55.476Z,25.50
2023-01-20T04:10:26.399Z,25.37
2023-01-20T04:12:54.810Z,26.07
2023-01-20T04:15:23.192Z,25.63
2023-01-20T04:17:50.962Z,26.67
2023-01-20T04:20:19.396Z,25.30
2023-01-20T04:22:51.743Z,25.00
2023-01-20T04:25:26.475Z,24.73
2023-01-20T04:27:54.258Z,24.50
2023-01-20T04:30:21.957Z,25.73
2023-01-20T04:32:49.618Z,26.20
2023-01-20T04:35:20.173Z,26.40
2023-01-20T04:37:47.814Z,26.30
2023-01-20T04:40:15.730Z,25.30
2023-01-20T04:42:44.689Z,25.67
2023-01-20T04:45:16.130Z,26.17
2023-01-20T04:47:44.642Z,26.10
2023-01-20T04:50:13.760Z,26.13
2023-01-20T04:52:41.466Z,27.63
2023-01-20T04:55:10.348Z,27.43
2023-01-20T04:57:37.931Z,27.73
2023-01-20T05:00:09.499Z,28.60
2023-01-20T05:02:37.132Z,28.17
2023-01-20T05:05:05.072Z,28.33
2023-01-20T05:07:32.666Z,28.10
2023-01-20T05:10:00.263Z,28.30
2023-01-20T05:12:27.932Z,27.70
2023-01-20T05:14:55.527Z,28.47
2023-01-20T05:17:24.626Z,29.67
2023-01-20T05:19:52.326Z,28.47
2023-01-20T05:22:19.954Z,28.20
2023-01-20T05:24:47.484Z,28.80
2023-01-20T05:27:15.075Z,29.37
2023-01-20T05:29:42.658Z,29.17
2023-01-20T05:32:10.243Z,28.60
2023-01-20T05:34:39.222Z,29.77
2023-01-20T05:37:06.848Z,29.90
2023-01-20T05:39:34.492Z,30.37
2023-01-20T05:42:02.739Z,30.00
2023-01-20T05:44:30.318Z,29.93
2023-01-20T05:46:57.949Z,30.70
2023-01-20T05:49:25.631Z,29.53
2023-01-20T05:51:54.614Z,29.20
2023-01-20T05:54:22.531Z,31.00
2023-01-20T05:56:50.130Z,29.50
2023-01-20T05:59:17.669Z,29.30
2023-01-20T06:01:45.344Z,29.73
2023-01-20T06:04:12.947Z,29.80
2023-01-20T06:06:40.555Z,30.00
2023-01-20T06:09:10.953Z,27.97
2023-01-20T06:11:38.599Z,29.23
2023-01-20T06:14:06.236Z,28.50
2023-01-20T06:16:33.883Z,27.90
2023-01-20T06:19:01.511Z,28.93
2023-01-20T06:21:29.175Z,30.00
2023-01-20T06:23:56.919Z,30.63
2023-01-20T06:26:25.806Z,29.40
2023-01-20T06:28:53.391Z,29.00
2023-01-20T06:31:21.030Z,30.30
2023-01-20T06:33:48.631Z,28.70
2023-01-20T06:36:17.603Z,30.13
2023-01-20T06:38:50.322Z,30.67
2023-01-20T06:41:19.019Z,31.50
2023-01-20T06:43:50.063Z,31.87
2023-01-20T06:46:18.342Z,30.50
2023-01-20T06:48:46.757Z,30.60
2023-01-20T06:51:16.948Z,31.90
2023-01-20T06:53:45.376Z,32.93
2023-01-20T06:56:14.892Z,34.17
2023-01-20T06:58:43.128Z,33.53
2023-01-20T07:01:14.715Z,34.50
2023-01-20T07:03:43.545Z,35.67
2023-01-20T07:06:16.743Z,37.80
2023-01-20T07:08:44.939Z,36.57
2023-01-20T07:11:13.167Z,37.47
2023-01-20T07:13:40.792Z,41.03
2023-01-20T07:16:10.985Z,39.00
2023-01-20T07:18:41.299Z,39.97
2023-01-20T07:21:11.211Z,38.67
2023-01-20T07:23:38.768Z,40.37
2023-01-20T07:26:08.790Z,39.57
2023-01-20T07:28:37.167Z,41.00
2023-01-20T07:31:05.715Z,40.60
2023-01-20T07:33:33.762Z,40.80
2023-01-20T07:36:03.132Z,41.07
2023-01-20T07:38:31.482Z,44.40
2023-01-20T07:40:59.536Z,44.73
2023-01-20T07:43:27.315Z,43.07
2023-01-20T07:45:56.347Z,41.70
2023-01-20T07:48:24.897Z,42.47
2023-01-20T07:50:57.850Z,42.60
2023-01-20T07:53:26.797Z,42.00
2023-01-20T07:55:54.456Z,41.13
2023-01-20T07:58:22.089Z,41.50
2023-01-20T08:00:49.742Z,42.00
2023-01-20T08:03:17.344Z,40.77
2023-01-20T08:05:45.050Z,41.90
2023-01-20T08:08:12.756Z,42.20
2023-01-20T08:10:41.837Z,41.97
2023-01-20T08:13:09.445Z,40.30
2023-01-20T08:15:36.974Z,39.63
2023-01-20T08:18:04.663Z,40.67
2023-01-20T08:20:32.276Z,39.83
2023-01-20T08:22:59.890Z,39.30
2023-01-20T08:25:27.460Z,39.73
2023-01-20T08:27:56.427Z,40.37
2023-01-20T08:30:24.046Z,37.60
2023-01-20T08:32:51.652Z,38.97
2023-01-20T08:35:19.654Z,38.20
2023-01-20T08:37:47.346Z,38.03
2023-01-20T08:40:15.486Z,39.00
2023-01-20T08:42:43.155Z,40.10
2023-01-20T08:45:13.121Z,39.50
2023-01-20T08:47:45.702Z,40.07
2023-01-20T08:50:15.551Z,40.50
2023-01-20T08:52:43.508Z,42.97
2023-01-20T08:55:11.914Z,45.27
2023-01-20T08:57:39.515Z,43.17
2023-01-20T09:00:10.893Z,42.43
2023-01-20T09:02:40.888Z,41.83
2023-01-20T09:05:09.852Z,43.67
2023-01-20T09:07:37.415Z,44.70
2023-01-20T09:10:06.257Z,44.97
2023-01-20T09:12:34.194Z,44.57
2023-01-20T09:15:04.105Z,44.67
2023-01-20T09:17:32.596Z,44.83
2023-01-20T09:20:01.558Z,44.40
2023-01-20T09:22:29.128Z,45.93
2023-01-20T09:24:56.782Z,44.40
2023-01-20T09:27:25.365Z,45.33
2023-01-20T09:29:53.440Z,44.57
2023-01-20T09:32:21.060Z,43.93
2023-01-20T09:34:48.634Z,44.00
2023-01-20T09:37:35.226Z,43.50
2023-01-20T09:40:20.450Z,43.07
2023-01-20T09:43:22.741Z,41.57
2023-01-20T09:45:56.129Z,42.47
2023-01-20T09:48:48.937Z,44.03
2023-01-20T09:51:42.760Z,47.13
2023-01-20T09:54:17.661Z,43.03
2023-01-20T09:56:48.971Z,42.90
2023-01-20T09:59:21.261Z,42.63
2023-01-20T10:01:52.174Z,44.40
2023-01-20T10:04:25.323Z,45.50
2023-01-20T10:06:56.382Z,45.73
2023-01-20T10:09:32.716Z,44.43
2023-01-20T10:12:08.401Z,46.40
2023-01-20T10:14:41.917Z,47.67
2023-01-20T10:17:15.453Z,47.10
2023-01-20T10:19:50.189Z,47.30
2023-01-20T10:22:23.076Z,49.27
2023-01-20T10:24:58.873Z,49.70
2023-01-20T10:27:29.657Z,49.07
2023-01-20T10:30:04.837Z,48.37
2023-01-20T10:32:36.556Z,54.07
2023-01-20T10:35:11.532Z,48.57
2023-01-20T10:37:39.761Z,47.23
2023-01-20T10:40:19.211Z,50.80
2023-01-20T10:42:49.573Z,51.07
2023-01-20T10:45:22.214Z,51.93
2023-01-20T10:47:59.653Z,52.70
2023-01-20T10:50:35.353Z,49.20
2023-01-20T10:53:14.952Z,51.30
2023-01-20T10:55:56.522Z,54.33
2023-01-20T10:58:28.779Z,50.00
2023-01-20T11:00:58.288Z,48.37
2023-01-20T11:03:26.890Z,49.80
2023-01-20T11:05:54.524Z,51.37
2023-01-20T11:08:24.820Z,51.70
2023-01-20T11:10:55.928Z,52.73
2023-01-20T11:13:23.735Z,51.63
2023-01-20T11:15:56.342Z,48.00
2023-01-20T11:18:30.442Z,47.70
2023-01-20T11:21:01.587Z,47.90
2023-01-20T11:23:37.669Z,48.30
2023-01-20T11:26:10.908Z,48.63
2023-01-20T11:28:51.887Z,47.20
2023-01-20T11:31:19.877Z,46.70
2023-01-20T11:33:59.569Z,45.60
2023-01-20T11:36:27.803Z,48.17
2023-01-20T11:38:56.948Z,48.30
2023-01-20T11:41:28.003Z,46.40
2023-01-20T11:43:57.233Z,46.77
2023-01-20T11:46:30.743Z,45.93
2023-01-20T11:49:14.791Z,46.70
2023-01-20T11:51:51.021Z,46.83
2023-01-20T11:54:21.553Z,46.90
2023-01-20T11:56:54.863Z,46.30
2023-01-20T11:59:27.563Z,48.30
2023-01-20T12:01:58.519Z,47.60
2023-01-20T12:28:01.312Z,46.47
2023-01-20T12:30:45.210Z,46.63
2023-01-20T12:33:25.298Z,46.93
2023-01-20T12:36:34.480Z,45.50
2023-01-20T12:39:28.645Z,44.50
2023-01-20T12:42:31.298Z,48.30
2023-01-20T12:45:00.505Z,47.13
2023-01-20T12:47:45.644Z,47.40
2023-01-20T12:50:24.397Z,45.40
2023-01-20T12:53:06.200Z,44.63
2023-01-20T12:55:49.697Z,44.70
2023-01-20T12:58:26.878Z,43.73
2023-01-20T13:01:16.114Z,46.07
2023-01-20T13:04:26.163Z,47.17
2023-01-20T13:07:15.414Z,44.47
2023-01-20T13:09:58.862Z,45.23
2023-01-20T13:12:41.360Z,45.80
2023-01-20T13:15:20.001Z,46.40
2023-01-20T13:18:03.347Z,42.40
2023-01-20T13:20:31.882Z,42.83
2023-01-20T13:23:04.995Z,43.80
2023-01-20T13:25:34.780Z,43.60
2023-01-20T13:28:03.201Z,45.00
2023-01-20T13:30:42.965Z,44.10
2023-01-20T13:33:19.392Z,42.27
2023-01-20T13:35:51.396Z,42.23
2023-01-20T13:38:23.610Z,44.03
2023-01-20T13:40:56.332Z,40.57
2023-01-20T13:43:47.975Z,42.07
2023-01-20T13:46:47.381Z,39.60
2023-01-20T13:49:32.026Z,40.30
2023-01-20T13:51:59.649Z,41.03
2023-01-20T13:54:45.545Z,41.60
2023-01-20T13:57:46.325Z,42.47
2023-01-20T14:00:19.719Z,40.43
2023-01-20T14:02:49.378Z,38.40
2023-01-20T14:05:33.746Z,37.50
2023-01-20T14:08:01.760Z,39.30
2023-01-20T14:10:30.829Z,38.60
2023-01-20T14:12:58.452Z,37.50
2023-01-20T14:15:36.887Z,38.87
2023-01-20T14:18:05.661Z,37.30
2023-01-20T14:20:33.514Z,38.77
2023-01-20T14:23:25.560Z,37.73
2023-01-20T14:26:11.735Z,39.97
2023-01-20T14:28:45.716Z,38.00
2023-01-20T14:31:40.689Z,38.57
2023-01-20T14:34:25.328Z,38.90
2023-01-20T14:36:53.348Z,40.57
2023-01-20T14:39:24.379Z,39.10
2023-01-20T14:41:54.861Z,41.60
2023-01-20T14:44:24.182Z,40.33
2023-01-20T14:46:54.300Z,37.30
2023-01-20T14:49:23.977Z,38.80
2023-01-20T14:51:52.805Z,39.10
2023-01-20T14:54:38.206Z,39.70
2023-01-20T14:57:26.530Z,39.57
2023-01-20T15:00:05.716Z,39.90
2023-01-20T15:02:35.916Z,40.43
2023-01-20T15:05:13.712Z,39.60
2023-01-20T15:07:41.981Z,39.90
2023-01-20T15:10:16.430Z,39.60
2023-01-20T15:12:55.784Z,41.37
2023-01-20T15:15:29.004Z,39.03
2023-01-20T15:18:21.368Z,41.53
2023-01-20T15:21:03.730Z,40.60
2023-01-20T15:23:38.121Z,41.13
2023-01-20T15:26:10.568Z,40.13
2023-01-20T15:28:43.929Z,42.07
2023-01-20T15:31:14.350Z,42.33
2023-01-20T15:33:42.900Z,43.10
2023-01-20T15:36:25.332Z,42.70
2023-01-20T15:38:53.192Z,41.50
2023-01-20T15:41:21.378Z,40.93
2023-01-20T15:43:52.436Z,39.40
2023-01-20T15:46:20.515Z,37.93
2023-01-20T15:48:48.136Z,39.70
2023-01-20T15:51:17.329Z,40.03
2023-01-20T15:53:45.913Z,42.07
2023-01-20T15:56:20.768Z,39.63
2023-01-20T15:58:50.741Z,40.67
2023-01-20T16:01:20.573Z,39.80
2023-01-20T16:03:48.185Z,41.10
2023-01-20T16:06:17.422Z,39.00
2023-01-20T16:08:47.117Z,41.33
2023-01-20T16:11:14.744Z,41.17
2023-01-20T16:13:42.948Z,41.00
2023-01-20T16:16:14.480Z,41.20
2023-01-20T16:18:42.537Z,40.80
2023-01-20T16:21:11.795Z,40.40
2023-01-20T16:23:39.574Z,41.83
2023-01-20T16:26:19.686Z,43.03
2023-01-20T16:28:47.290Z,42.03
2023-01-20T16:31:16.756Z,41.20
2023-01-20T16:33:44.540Z,40.30
2023-01-20T16:36:13.798Z,40.43
2023-01-20T16:38:42.024Z,42.20
2023-01-20T16:41:16.290Z,39.00
2023-01-20T16:43:44.509Z,41.27
2023-01-20T16:46:14.579Z,42.07
2023-01-20T16:48:44.090Z,41.20
2023-01-20T16:51:14.037Z,41.50
2023-01-20T16:53:41.771Z,39.90
2023-01-20T16:56:14.843Z,40.83
2023-01-20T16:58:42.475Z,41.27
2023-01-20T17:01:12.313Z,41.40
2023-01-20T17:03:40.815Z,44.83
2023-01-20T17:06:17.458Z,45.53
2023-01-20T17:08:45.976Z,44.70
2023-01-20T17:11:17.915Z,40.93
2023-01-20T17:13:45.522Z,44.17
2023-01-20T17:16:13.442Z,51.27
2023-01-20T17:18:44.599Z,47.60
2023-01-20T17:21:14.977Z,45.93
2023-01-20T17:23:43.328Z,42.20
2023-01-20T17:26:11.041Z,43.77
2023-01-20T17:28:38.612Z,43.30
2023-01-20T17:31:07.897Z,46.37
2023-01-20T17:33:35.509Z,44.07
2023-01-20T17:36:04.577Z,42.30
2023-01-20T17:38:35.482Z,43.40
2023-01-20T17:41:03.859Z,42.60
2023-01-20T17:43:35.697Z,41.53
2023-01-20T17:46:13.252Z,43.00
2023-01-20T17:48:41.065Z,41.60
2023-01-20T17:51:12.945Z,46.43
2023-01-20T17:53:42.108Z,44.13
2023-01-20T17:56:13.463Z,43.93
2023-01-20T17:58:42.732Z,47.77
2023-01-20T18:01:12.650Z,42.97
2023-01-20T18:03:42.963Z,44.77
2023-01-20T18:06:12.578Z,44.63
2023-01-20T18:08:40.644Z,44.30
2023-01-20T18:11:11.803Z,44.50
2023-01-20T18:13:39.789Z,45.00
2023-01-20T18:16:08.897Z,43.77
2023-01-20T18:18:36.566Z,43.97
2023-01-20T18:21:11.240Z,45.50
2023-01-20T18:23:39.537Z,44.67
2023-01-20T18:26:09.734Z,43.90
2023-01-20T18:28:38.271Z,44.13
2023-01-20T18:31:08.945Z,47.20
2023-01-20T18:33:38.505Z,47.67
2023-01-20T18:36:07.935Z,44.57
2023-01-20T18:38:35.674Z,47.70
2023-01-20T18:41:04.411Z,46.43
2023-01-20T18:43:33.421Z,44.53
2023-01-20T18:46:01.139Z,47.73
2023-01-20T18:48:28.786Z,48.63
2023-01-20T18:50:59.848Z,47.10
2023-01-20T18:53:27.940Z,48.10
2023-01-20T18:56:01.035Z,43.73
2023-01-20T18:58:29.374Z,46.83
2023-01-20T19:01:04.860Z,43.57
2023-01-20T19:03:32.660Z,46.23
2023-01-20T19:06:07.862Z,45.57
2023-01-20T19:08:35.684Z,45.50
2023-01-20T19:11:05.268Z,45.43
2023-01-20T19:13:33.350Z,45.27
2023-01-20T19:16:01.121Z,44.30
2023-01-20T19:18:30.309Z,44.30
2023-01-20T19:21:05.639Z,50.10
2023-01-20T19:23:33.215Z,45.37
2023-01-20T19:26:01.579Z,44.00
2023-01-20T19:28:29.202Z,44.60
2023-01-20T19:30:57.191Z,44.83
2023-01-20T19:33:24.905Z,43.53
2023-01-20T19:35:53.885Z,44.17
2023-01-20T19:38:21.498Z,41.27
2023-01-20T19:40:49.116Z,46.83
2023-01-20T19:43:16.795Z,44.70
2023-01-20T19:45:46.217Z,43.80
2023-01-20T19:48:13.984Z,44.27
2023-01-20T19:50:41.828Z,46.03
2023-01-20T19:53:10.790Z,49.20
2023-01-20T19:55:38.362Z,46.23
2023-01-20T19:58:06.295Z,44.17
2023-01-20T20:00:33.920Z,47.97
2023-01-20T20:03:03.025Z,43.83
2023-01-20T20:05:31.778Z,47.00
2023-01-20T20:08:01.076Z,48.07
2023-01-20T20:10:30.184Z,44.63
2023-01-20T20:12:59.100Z,50.00
2023-01-20T20:15:26.750Z,50.20
2023-01-20T20:17:55.251Z,47.80
2023-01-20T20:20:22.830Z,49.30
2023-01-20T20:22:50.465Z,50.00
2023-01-20T20:25:18.197Z,52.17
2023-01-20T20:27:47.316Z,57.20
2023-01-20T20:30:15.200Z,51.07
2023-01-20T20:32:43.039Z,52.50
2023-01-20T20:35:10.751Z,50.80
2023-01-20T20:37:39.054Z,58.47
2023-01-20T20:40:08.097Z,53.97
2023-01-20T20:42:35.875Z,59.03
2023-01-20T20:45:05.167Z,57.13
2023-01-20T20:47:33.145Z,52.70
2023-01-20T20:50:00.810Z,56.87
2023-01-20T20:52:28.469Z,55.70
2023-01-20T20:54:56.127Z,54.37
2023-01-20T20:57:23.743Z,55.60
2023-01-20T20:59:58.946Z,60.50
2023-01-20T21:02:28.552Z,54.87
2023-01-20T21:04:56.280Z,53.83
2023-01-20T21:07:23.895Z,51.87
2023-01-20T21:09:52.057Z,51.50
2023-01-20T21:12:19.746Z,53.70
2023-01-20T21:14:47.461Z,48.10
2023-01-20T21:17:15.087Z,47.40
2023-01-20T21:19:44.162Z,50.13
2023-01-20T21:22:11.775Z,50.40
2023-01-20T21:24:39.363Z,47.97
2023-01-20T21:27:06.935Z,49.00
2023-01-20T21:29:34.494Z,49.57
2023-01-20T21:32:02.114Z,49.43
2023-01-20T21:34:29.703Z,49.90
2023-01-20T21:36:59.588Z,47.23
2023-01-20T21:39:27.205Z,50.40
2023-01-20T21:41:54.775Z,48.90
2023-01-20T21:44:32.855Z,48.30
2023-01-20T21:47:02.235Z,50.57
2023-01-20T21:50:02.033Z,47.50
2023-01-20T21:52:43.065Z,60.80
2023-01-20T21:55:13.243Z,48.67
2023-01-20T21:57:40.838Z,45.97
2023-01-20T22:00:10.311Z,50.93
2023-01-20T22:02:38.125Z,53.17
2023-01-20T22:05:06.462Z,55.27
2023-01-20T22:07:35.623Z,67.23
2023-01-20T22:10:03.795Z,69.23
2023-01-20T22:12:34.526Z,77.90
2023-01-20T22:15:02.477Z,65.23
2023-01-20T22:17:30.901Z,66.70
2023-01-20T22:19:58.577Z,163.23
2023-01-20T22:22:26.210Z,180.87
2023-01-20T22:24:55.195Z,297.60
2023-01-20T22:27:22.793Z,270.83
2023-01-20T22:29:50.390Z,251.33
2023-01-20T22:32:18.049Z,221.53
2023-01-20T22:34:45.605Z,291.27
2023-01-20T22:37:13.255Z,325.80
2023-01-20T22:39:40.854Z,360.23
2023-01-20T22:42:09.851Z,296.73
2023-01-20T22:44:37.444Z,307.67
2023-01-20T22:47:09.678Z,242.13
2023-01-20T22:49:37.301Z,327.57
2023-01-20T22:52:05.086Z,393.43
2023-01-20T22:54:32.754Z,203.03
2023-01-20T22:57:00.396Z,525.23
2023-01-20T22:59:29.556Z,233.57
2023-01-20T23:01:57.187Z,278.97
2023-01-20T23:04:24.856Z,182.03
2023-01-20T23:06:52.575Z,292.67
2023-01-20T23:09:20.214Z,221.33
2023-01-20T23:11:49.346Z,183.20
2023-01-20T23:14:17.211Z,335.93
2023-01-20T23:16:46.163Z,271.90
2023-01-20T23:19:13.858Z,115.20
2023-01-20T23:21:41.565Z,290.93
2023-01-20T23:24:09.556Z,218.40
2023-01-20T23:26:37.215Z,343.23
2023-01-20T23:29:05.280Z,157.37
2023-01-20T23:31:35.121Z,359.40
2023-01-20T23:34:04.352Z,328.90
2023-01-20T23:36:32.116Z,183.60
2023-01-20T23:38:59.784Z,119.00
2023-01-20T23:41:27.501Z,271.80
2023-01-20T23:43:55.191Z,461.80
2023-01-20T23:46:22.777Z,327.27
2023-01-20T23:48:50.414Z,241.90
2023-01-20T23:51:19.534Z,190.10
2023-01-20T23:53:47.253Z,149.93
2023-01-20T23:56:17.368Z,309.93
2023-01-20T23:58:45.805Z,204.87
